createdAt,value
2022-12-18T00:04:46.814Z,100455.21
2022-12-18T00:09:53.785Z,100465.84
2022-12-18T00:14:58.034Z,100468.47
2022-12-18T00:20:04.479Z,100477.66
2022-12-18T00:25:09.517Z,100482.85
2022-12-18T00:30:38.962Z,100496.22
2022-12-18T00:35:41.175Z,100502.27
2022-12-18T00:40:58.967Z,100501.09
2022-12-18T00:46:08.871Z,100509.65
2022-12-18T00:51:13.918Z,100518.27
2022-12-18T00:56:17.586Z,100524.63
2022-12-18T01:01:22.443Z,100534.58
2022-12-18T01:06:30.550Z,100535.98
2022-12-18T01:11:35.418Z,100542.79
2022-12-18T01:16:48.677Z,100555.95
2022-12-18T01:22:16.967Z,100562.70
2022-12-18T01:27:25.505Z,100567.90
2022-12-18T01:32:33.747Z,100566.78
2022-12-18T01:37:56.317Z,100571.48
2022-12-18T01:43:29.716Z,100571.70
2022-12-18T01:48:38.690Z,100575.16
2022-12-18T01:53:45.385Z,100579.64
2022-12-18T01:59:06.997Z,100585.23
2022-12-18T02:04:49.688Z,100594.08
2022-12-18T02:10:09.144Z,100599.33
2022-12-18T02:15:49.361Z,100608.70
2022-12-18T02:21:18.638Z,100613.75
2022-12-18T02:32:33.004Z,100631.75
2022-12-18T02:43:17.151Z,100639.43
2022-12-18T02:54:01.245Z,100653.92
2022-12-18T02:59:23.498Z,100653.41
2022-12-18T03:04:52.006Z,100662.65
2022-12-18T03:09:59.917Z,100669.61
2022-12-18T03:15:35.293Z,100667.35
2022-12-18T03:21:00.722Z,100675.02
2022-12-18T03:26:12.422Z,100675.37
2022-12-18T03:31:23.289Z,100680.50
2022-12-18T03:42:05.777Z,100696.19
2022-12-18T03:47:49.224Z,100701.13
2022-12-18T03:53:23.996Z,100711.27
2022-12-18T03:58:54.242Z,100712.75
2022-12-18T04:09:33.508Z,100719.18
2022-12-18T04:15:03.465Z,100726.63
2022-12-18T04:20:14.148Z,100728.70
2022-12-18T04:25:27.196Z,100731.95
2022-12-18T04:30:49.488Z,100729.62
2022-12-18T04:37:37.145Z,100743.77
2022-12-18T04:41:52.800Z,100755.43
2022-12-18T04:47:11.173Z,100767.45
2022-12-18T04:52:19.155Z,100773.27
2022-12-18T04:58:02.017Z,100773.94
2022-12-18T05:03:08.091Z,100782.83
2022-12-18T05:08:34.759Z,100790.09
2022-12-18T05:13:45.532Z,100791.80
2022-12-18T05:18:54.248Z,100798.16
2022-12-18T05:24:00.189Z,100808.92
2022-12-18T05:29:07.666Z,100809.55
2022-12-18T05:34:16.425Z,100805.71
2022-12-18T05:39:22.606Z,100808.59
2022-12-18T05:44:28.631Z,100811.61
2022-12-18T05:49:41.898Z,100817.73
2022-12-18T05:54:45.882Z,100825.83
2022-12-18T05:59:53.867Z,100838.66
2022-12-18T06:04:57.878Z,100842.11
2022-12-18T06:10:21.466Z,100844.82
2022-12-18T06:15:25.905Z,100855.13
2022-12-18T06:20:33.806Z,100868.88
2022-12-18T06:25:41.640Z,100868.14
2022-12-18T06:30:49.905Z,100867.17
2022-12-18T06:36:13.254Z,100870.43
2022-12-18T06:41:23.160Z,100875.39
2022-12-18T06:46:29.224Z,100885.23
2022-12-18T06:51:39.315Z,100894.83
2022-12-18T06:56:43.725Z,100899.44
2022-12-18T07:01:48.090Z,100912.55
2022-12-18T07:23:05.053Z,100940.43
2022-12-18T07:28:21.526Z,100945.10
2022-12-18T07:33:26.945Z,100952.04
2022-12-18T07:38:57.917Z,100966.16
2022-12-18T07:44:09.758Z,100975.25
2022-12-18T07:49:23.665Z,100981.70
2022-12-18T07:54:42.387Z,100979.52
2022-12-18T08:00:19.205Z,100985.63
2022-12-18T08:05:40.177Z,100990.85
2022-12-18T08:10:58.895Z,100989.32
2022-12-18T08:16:11.300Z,100995.69
2022-12-18T08:21:26.747Z,101000.61
2022-12-18T08:32:18.387Z,101010.21
2022-12-18T08:37:29.463Z,101014.95
2022-12-18T08:48:32.921Z,101016.86
2022-12-18T08:53:51.107Z,101024.96
2022-12-18T08:58:57.936Z,101027.83
2022-12-18T09:04:05.983Z,101030.36
2022-12-18T09:09:12.496Z,101035.02
2022-12-18T09:14:24.965Z,101039.27
2022-12-18T09:19:29.341Z,101039.44
2022-12-18T09:24:33.543Z,101042.14
2022-12-18T09:29:37.160Z,101043.52
2022-12-18T09:34:41.049Z,101043.69
2022-12-18T09:39:45.178Z,101043.76
2022-12-18T09:44:58.143Z,101043.27
2022-12-18T09:50:18.992Z,101049.69
2022-12-18T09:55:36.620Z,101052.05
2022-12-18T10:00:41.785Z,101048.16
2022-12-18T10:06:18.579Z,101049.70
2022-12-18T10:11:49.859Z,101049.41
2022-12-18T10:17:12.397Z,101044.95
2022-12-18T10:23:05.636Z,101047.81
2022-12-18T10:28:32.526Z,101055.61
2022-12-18T10:33:36.610Z,101050.26
2022-12-18T10:39:08.044Z,101040.29
2022-12-18T10:44:19.788Z,101028.50
2022-12-18T10:50:01.622Z,101033.53
2022-12-18T10:55:04.991Z,101029.56
2022-12-18T11:00:25.372Z,101028.06
2022-12-18T11:06:18.729Z,101022.67
2022-12-18T11:11:31.195Z,101018.45
2022-12-18T11:16:57.925Z,101013.10
2022-12-18T11:22:33.284Z,101008.04
2022-12-18T11:27:41.598Z,101003.86
2022-12-18T11:32:53.159Z,100997.52
2022-12-18T11:38:06.080Z,101002.56
2022-12-18T11:43:18.261Z,101004.82
2022-12-18T11:48:57.543Z,101009.77
2022-12-18T11:54:11.486Z,101013.41
2022-12-18T11:59:55.141Z,101010.02
2022-12-18T12:05:17.856Z,101013.89
2022-12-18T12:10:30.368Z,101014.58
2022-12-18T12:16:09.398Z,101010.23
2022-12-18T12:21:36.796Z,101008.27
2022-12-18T12:27:14.002Z,101006.70
2022-12-18T12:32:57.122Z,101017.26
2022-12-18T12:38:15.275Z,101028.21
2022-12-18T12:49:16.542Z,101049.30
2022-12-18T12:54:27.117Z,101053.48
2022-12-18T12:59:49.456Z,101058.67
2022-12-18T13:05:14.427Z,101067.35
2022-12-18T13:10:20.900Z,101069.47
2022-12-18T13:15:30.379Z,101077.55
2022-12-18T13:20:44.704Z,101078.14
2022-12-18T13:26:00.393Z,101083.04
2022-12-18T13:31:08.528Z,101085.91
2022-12-18T13:36:28.915Z,101096.84
2022-12-18T13:41:34.361Z,101099.65
2022-12-18T13:46:46.676Z,101104.73
2022-12-18T13:51:59.922Z,101109.10
2022-12-18T13:57:05.198Z,101116.52
2022-12-18T14:02:16.588Z,101122.52
2022-12-18T14:07:23.910Z,101120.14
2022-12-18T14:12:53.553Z,101131.13
2022-12-18T14:18:05.326Z,101135.83
2022-12-18T14:23:41.273Z,101144.17
2022-12-18T14:28:46.086Z,101146.80
2022-12-18T14:37:20.719Z,101153.84
2022-12-18T14:40:42.287Z,101151.16
2022-12-18T14:45:47.964Z,101158.14
2022-12-18T14:51:04.783Z,101169.55
2022-12-18T14:56:34.605Z,101168.14
2022-12-18T15:01:45.955Z,101174.94
2022-12-18T15:06:49.992Z,101164.30
2022-12-18T15:12:03.479Z,101162.42
2022-12-18T15:17:26.851Z,101170.61
2022-12-18T15:22:41.820Z,101181.48
2022-12-18T15:27:53.071Z,101183.41
2022-12-18T15:33:25.997Z,101181.95
2022-12-18T15:38:48.608Z,101191.92
2022-12-18T15:44:03.971Z,101202.60
2022-12-18T15:49:24.880Z,101209.59
2022-12-18T15:54:50.624Z,101212.27
2022-12-18T16:00:00.345Z,101215.77
2022-12-18T16:05:04.490Z,101220.37
2022-12-18T16:10:08.502Z,101221.53
2022-12-18T16:15:22.416Z,101225.04
2022-12-18T16:20:28.094Z,101237.99
2022-12-18T16:25:53.014Z,101235.10
2022-12-18T16:31:14.249Z,101237.81
2022-12-18T16:36:27.755Z,101242.83
2022-12-18T16:41:37.457Z,101252.92
2022-12-18T16:46:47.690Z,101253.65
2022-12-18T16:52:52.714Z,101263.18
2022-12-18T16:58:03.264Z,101270.95
2022-12-18T17:03:10.736Z,101260.58
2022-12-18T17:08:22.183Z,101262.95
2022-12-18T17:14:07.245Z,101265.80
2022-12-18T17:19:17.386Z,101270.52
2022-12-18T17:24:40.314Z,101263.81
2022-12-18T17:29:47.735Z,101252.95
2022-12-18T17:34:53.236Z,101257.64
2022-12-18T17:40:00.901Z,101248.38
2022-12-18T17:45:07.536Z,101239.95
2022-12-18T17:50:15.211Z,101241.75
2022-12-18T17:55:19.339Z,101239.41
2022-12-18T18:00:27.580Z,101232.63
2022-12-18T18:05:30.971Z,101229.60
2022-12-18T18:10:38.907Z,101229.58
2022-12-18T18:15:46.183Z,101236.33
2022-12-18T18:20:50.852Z,101237.92
2022-12-18T18:26:09.415Z,101241.19
2022-12-18T18:31:19.111Z,101253.70
2022-12-18T18:36:29.556Z,101264.23
2022-12-18T18:41:38.927Z,101274.45
2022-12-18T18:46:47.571Z,101258.89
2022-12-18T18:51:53.440Z,101259.59
2022-12-18T18:57:26.249Z,101264.64
2022-12-18T19:02:32.794Z,101258.46
2022-12-18T19:07:37.100Z,101253.39
2022-12-18T19:12:59.117Z,101255.05
2022-12-18T19:18:02.469Z,101253.79
2022-12-18T19:23:05.882Z,101252.92
2022-12-18T19:28:21.631Z,101260.36
2022-12-18T19:33:42.365Z,101273.15
2022-12-18T19:38:52.915Z,101268.46
2022-12-18T19:43:57.561Z,101280.08
2022-12-18T19:49:02.969Z,101285.58
2022-12-18T19:54:06.739Z,101289.86
2022-12-18T19:59:13.169Z,101293.75
2022-12-18T20:04:20.223Z,101303.38
2022-12-18T20:09:23.974Z,101298.64
2022-12-18T20:14:28.185Z,101297.68
2022-12-18T20:19:32.498Z,101287.59
2022-12-18T20:24:37.577Z,101286.99
2022-12-18T20:29:40.875Z,101303.91
2022-12-18T20:34:43.998Z,101309.70
2022-12-18T20:39:47.268Z,101310.49
2022-12-18T20:44:50.654Z,101310.02
2022-12-18T20:49:53.794Z,101300.27
2022-12-18T20:54:57.967Z,101291.23
2022-12-18T21:00:11.320Z,101288.23
2022-12-18T21:05:19.233Z,101277.06
2022-12-18T21:10:26.726Z,101270.61
2022-12-18T21:15:31.149Z,101259.84
2022-12-18T21:20:37.538Z,101259.73
2022-12-18T21:25:41.288Z,101266.13
2022-12-18T21:30:46.043Z,101266.81
2022-12-18T21:35:57.014Z,101257.08
2022-12-18T21:41:31.367Z,101246.95
2022-12-18T21:46:40.230Z,101237.64
2022-12-18T21:51:46.271Z,101233.21
2022-12-18T21:56:54.045Z,101230.49
2022-12-18T22:02:13.671Z,101233.88
2022-12-18T22:07:21.167Z,101234.45
2022-12-18T22:12:48.844Z,101230.52
2022-12-18T22:17:59.729Z,101239.80
2022-12-18T22:24:30.092Z,101244.04
2022-12-18T22:29:52.758Z,101251.04
2022-12-18T22:35:09.512Z,101240.61
2022-12-18T22:40:51.511Z,101234.05
2022-12-18T22:46:06.772Z,101222.50
2022-12-18T22:51:23.079Z,101221.95
2022-12-18T22:57:02.474Z,101226.64
2022-12-18T23:03:15.001Z,101219.32
2022-12-18T23:07:52.763Z,101211.98
2022-12-18T23:13:00.391Z,101214.25
2022-12-18T23:18:37.089Z,101210.67
2022-12-18T23:24:12.092Z,101211.39
2022-12-18T23:29:17.355Z,101212.69
2022-12-18T23:34:38.873Z,101210.64
2022-12-18T23:39:48.855Z,101217.41
2022-12-18T23:45:11.205Z,101215.13
2022-12-18T23:51:15.780Z,101218.75
